Time;durP1;ratioP1;P1;durP2;ratioP2;P2;SDS_P1;SDS_P2;PMS_P1;PMS_P2;Temp;Humidity;BMP_temperature;BMP_pressure;BME280_temperature;BME280_humidity;BME280_pressure;Samples;Min_cycle;Max_cycle;Signal;HPM_P1;HPM_P2
2022/04/17 00:02:24;;;;;;;;;9.00;5.00;;;;;12.83;44.21;101731.16;5077642;27;45595;-72
2022/04/17 00:04:49;;;;;;;;;5.00;5.00;;;;;12.79;44.26;101721.63;5076981;27;45415;-72
2022/04/17 00:07:15;;;;;;;;;4.00;4.00;;;;;12.76;44.27;101724.34;5077035;27;45249;-72
2022/04/17 00:09:40;;;;;;;;;5.25;5.00;;;;;12.70;44.18;101713.03;5077474;28;45358;-71
2022/04/17 00:12:06;;;;;;;;;5.00;5.00;;;;;12.67;44.43;101713.13;5077507;27;45289;-73
2022/04/17 00:14:32;;;;;;;;;5.25;5.25;;;;;12.61;44.56;101710.69;5077214;28;46263;-72
2022/04/17 00:16:57;;;;;;;;;7.75;5.00;;;;;12.62;44.01;101708.94;5077225;27;45479;-72
2022/04/17 00:19:23;;;;;;;;;5.00;5.00;;;;;12.59;44.28;101709.88;5076751;27;45388;-73
2022/04/17 00:21:49;;;;;;;;;7.00;3.75;;;;;12.54;44.55;101703.88;5077308;27;45544;-74
2022/04/17 00:24:15;;;;;;;;;9.50;8.00;;;;;12.50;44.83;101703.13;5075225;27;46402;-71
2022/04/17 00:26:40;;;;;;;;;6.25;5.00;;;;;12.46;44.53;101695.31;5077156;27;45402;-71
2022/04/17 00:29:06;;;;;;;;;6.25;6.00;;;;;12.45;44.68;101701.50;5076955;27;45381;-70
2022/04/17 00:31:31;;;;;;;;;4.25;4.00;;;;;12.38;44.60;101696.41;5076958;27;45341;-70
2022/04/17 00:33:56;;;;;;;;;3.25;3.25;;;;;12.37;44.40;101705.25;5076894;28;45541;-69
2022/04/17 00:36:22;;;;;;;;;7.50;7.50;;;;;12.35;44.71;101690.38;5076427;27;45450;-72
2022/04/17 00:38:47;;;;;;;;;6.50;6.50;;;;;12.27;44.63;101694.13;5076960;27;45356;-71
2022/04/17 00:41:13;;;;;;;;;5.75;4.75;;;;;12.27;44.59;101682.69;5077478;27;45548;-72
2022/04/17 00:43:46;;;;;;;;;8.50;5.50;;;;;12.27;44.60;101693.25;5076613;27;45622;-72
2022/04/17 00:46:12;;;;;;;;;11.25;10.25;;;;;12.21;44.19;101694.28;5075458;27;45610;-71
2022/04/17 00:48:37;;;;;;;;;5.50;5.00;;;;;12.16;44.54;101685.63;5076756;27;45316;-70
2022/04/17 00:51:05;;;;;;;;;10.75;8.75;;;;;12.13;44.76;101694.50;5077120;27;45223;-72
2022/04/17 00:53:30;;;;;;;;;6.25;6.25;;;;;12.14;44.75;101698.00;5076544;27;46702;-71
2022/04/17 00:55:57;;;;;;;;;6.25;5.00;;;;;12.07;44.14;101692.03;5076668;27;45304;-73
2022/04/17 00:58:23;;;;;;;;;28.50;25.25;;;;;12.01;44.73;101681.69;5077049;27;45427;-69
2022/04/17 01:00:49;;;;;;;;;18.25;18.25;;;;;11.93;44.65;101667.81;5076867;27;45406;-69
2022/04/17 01:03:15;;;;;;;;;8.00;5.00;;;;;11.97;44.30;101680.00;5076629;27;45309;-71
2022/04/17 01:05:43;;;;;;;;;26.75;22.50;;;;;11.95;44.45;101681.81;5077047;27;45297;-69
2022/04/17 01:08:12;;;;;;;;;11.25;11.25;;;;;11.92;44.46;101681.91;5076689;27;45252;-69
2022/04/17 01:10:38;;;;;;;;;11.50;9.00;;;;;11.91;44.54;101682.81;5076677;27;45579;-72
2022/04/17 01:13:04;;;;;;;;;7.25;5.50;;;;;11.87;44.27;101682.03;5075992;28;45364;-68
2022/04/17 01:15:30;;;;;;;;;5.50;5.50;;;;;11.83;44.70;101680.38;5076540;27;45342;-70
2022/04/17 01:17:56;;;;;;;;;5.00;5.00;;;;;11.75;44.07;101661.28;5076428;27;45408;-70
2022/04/17 01:20:22;;;;;;;;;5.00;5.00;;;;;11.75;44.67;101675.34;5076435;27;45449;-71
2022/04/17 01:26:56;;;;;;;;;6.75;6.75;;;;;11.74;44.52;101673.59;5076182;27;46292;-72
2022/04/17 01:28:23;;;;;;;;;7.00;6.00;;;;;11.67;44.61;101666.78;5076114;27;45508;-71
2022/04/17 01:30:55;;;;;;;;;5.75;5.00;;;;;11.62;44.95;101672.16;5076306;27;45338;-71
2022/04/17 01:33:21;;;;;;;;;19.00;18.75;;;;;11.57;44.99;101655.59;5075647;27;45773;-70
2022/04/17 01:35:47;;;;;;;;;7.00;7.00;;;;;11.54;45.14;101656.53;5076030;27;45374;-69
2022/04/17 01:38:13;;;;;;;;;26.50;21.00;;;;;11.49;44.99;101658.44;5075185;27;45346;-72
2022/04/17 01:40:38;;;;;;;;;11.75;10.75;;;;;11.47;45.33;101660.25;5076133;27;45572;-73
2022/04/17 01:43:08;;;;;;;;;11.50;8.75;;;;;11.45;45.34;101654.16;5075734;27;45596;-72
2022/04/17 01:45:34;;;;;;;;;6.00;6.00;;;;;11.42;44.72;101651.59;5075837;27;45382;-70
2022/04/17 01:47:59;;;;;;;;;5.75;5.75;;;;;11.44;45.30;101662.13;5075905;27;45382;-72
2022/04/17 01:50:27;;;;;;;;;5.00;5.00;;;;;11.39;44.92;101651.69;5076009;27;45528;-72
2022/04/17 01:52:53;;;;;;;;;6.25;6.25;;;;;11.37;44.96;101650.84;5075589;28;46267;-73
2022/04/17 01:55:18;;;;;;;;;8.25;6.00;;;;;11.35;45.24;101652.66;5075568;28;45459;-70
2022/04/17 01:57:44;;;;;;;;;8.50;5.00;;;;;11.27;44.32;101641.47;5076011;27;45437;-69
2022/04/17 02:00:10;;;;;;;;;9.00;9.00;;;;;11.31;44.34;101653.66;5075841;27;45441;-69
2022/04/17 02:02:35;;;;;;;;;25.00;23.25;;;;;11.29;45.05;101655.47;5075284;27;45525;-72
2022/04/17 02:05:01;;;;;;;;;4.50;4.50;;;;;11.24;44.60;101643.28;5075242;27;47205;-72
2022/04/17 02:07:26;;;;;;;;;5.00;5.00;;;;;11.22;44.08;101653.00;5075568;27;45368;-72
2022/04/17 02:09:52;;;;;;;;;34.25;29.25;;;;;11.17;43.85;101646.97;5075587;27;45675;-72
2022/04/17 02:12:17;;;;;;;;;11.00;9.00;;;;;11.18;44.48;101647.84;5075494;27;53164;-69
2022/04/17 02:14:42;;;;;;;;;16.00;16.00;;;;;11.15;44.38;101648.78;5075454;27;45330;-71
2022/04/17 02:17:08;;;;;;;;;6.00;6.00;;;;;11.09;43.98;101634.00;5075510;27;45359;-69
2022/04/17 02:19:33;;;;;;;;;9.25;9.25;;;;;11.02;44.23;101623.69;5075896;27;45247;-72
2022/04/17 02:21:58;;;;;;;;;33.75;30.00;;;;;11.07;44.31;101638.44;5075286;27;45386;-68
2022/04/17 02:24:24;;;;;;;;;5.00;5.00;;;;;11.00;44.03;101634.22;5075558;27;45416;-71
2022/04/17 02:26:49;;;;;;;;;5.25;4.00;;;;;11.03;44.02;101642.03;5075593;27;45231;-68
2022/04/17 02:29:14;;;;;;;;;6.50;6.50;;;;;11.01;43.95;101632.47;5074537;27;45603;-70
2022/04/17 02:31:40;;;;;;;;;6.00;4.00;;;;;11.00;43.99;101628.13;5074617;27;45347;-71
2022/04/17 02:34:07;;;;;;;;;4.75;4.75;;;;;10.94;44.28;101621.22;5075360;27;45336;-71
2022/04/17 02:36:32;;;;;;;;;6.50;6.00;;;;;10.95;44.78;101631.72;5075113;27;45381;-70
2022/04/17 02:38:58;;;;;;;;;10.25;8.00;;;;;10.92;44.07;101628.28;5075149;27;45382;-70
2022/04/17 02:41:23;;;;;;;;;3.75;3.75;;;;;10.87;44.01;101622.28;5074530;27;45358;-68
2022/04/17 02:43:49;;;;;;;;;6.00;6.00;;;;;10.87;43.99;101623.16;5075324;27;45443;-70
2022/04/17 02:47:42;;;;;;;;;4.25;4.25;;;;;10.81;44.35;101613.63;5075278;28;45426;-70
2022/04/17 02:49:00;;;;;;;;;6.00;4.25;;;;;10.80;44.04;101611.06;5075300;27;45309;-71
2022/04/17 02:51:25;;;;;;;;;6.75;6.75;;;;;10.78;43.93;101612.84;5073203;27;46442;-69
2022/04/17 02:53:51;;;;;;;;;5.00;5.00;;;;;10.75;44.37;101615.56;5074793;27;45323;-66
2022/04/17 02:56:16;;;;;;;;;3.25;2.50;;;;;10.74;44.00;101619.09;5075296;27;45327;-70
2022/04/17 02:58:41;;;;;;;;;6.25;6.25;;;;;10.72;44.51;101613.00;5075139;28;45550;-71
2022/04/17 03:06:35;;;;;;;;;7.00;7.00;;;;;10.60;43.93;101604.50;5074703;28;45349;-72
2022/04/17 03:09:00;;;;;;;;;8.00;7.00;;;;;10.57;44.07;101608.97;5074912;27;45329;-70
2022/04/17 03:11:25;;;;;;;;;5.00;5.00;;;;;10.55;44.04;101597.63;5074384;27;46907;-71
2022/04/17 03:13:52;;;;;;;;;5.25;5.25;;;;;10.50;44.01;101601.22;5074851;28;45388;-70
2022/04/17 03:16:17;;;;;;;;;6.50;6.50;;;;;10.50;43.74;101593.31;5075167;27;45253;-74
2022/04/17 03:18:43;;;;;;;;;6.50;5.75;;;;;10.48;44.17;101599.50;5073350;27;45315;-70
2022/04/17 03:21:08;;;;;;;;;5.50;5.00;;;;;10.43;44.07;101597.00;5074362;27;46404;-71
2022/04/17 03:23:34;;;;;;;;;6.50;5.00;;;;;10.40;43.92;101591.81;5074457;27;45315;-72
2022/04/17 03:25:59;;;;;;;;;5.25;5.25;;;;;10.38;44.01;101594.44;5074471;27;45277;-72
2022/04/17 03:28:25;;;;;;;;;6.25;5.75;;;;;10.34;43.98;101590.16;5074765;27;45278;-72
2022/04/17 03:30:50;;;;;;;;;6.00;4.50;;;;;10.34;44.38;101591.94;5074562;27;46539;-73
2022/04/17 03:33:16;;;;;;;;;5.00;5.00;;;;;10.31;43.96;101586.75;5074136;27;45444;-72
2022/04/17 03:35:41;;;;;;;;;6.00;5.75;;;;;10.23;44.20;101585.16;5074527;27;45416;-72
2022/04/17 03:38:09;;;;;;;;;6.50;6.50;;;;;10.25;44.55;101586.88;5074627;27;45473;-72
2022/04/17 03:40:34;;;;;;;;;4.75;4.75;;;;;10.22;44.88;101587.78;5074136;27;45415;-72
2022/04/17 03:43:00;;;;;;;;;6.50;6.50;;;;;10.20;44.07;101581.72;5074049;28;45433;-73
2022/04/17 03:45:25;;;;;;;;;3.75;3.75;;;;;10.15;44.36;101575.69;5074616;27;45455;-71
2022/04/17 03:47:50;;;;;;;;;6.00;5.00;;;;;10.14;44.85;101584.47;5074676;27;45499;-71
2022/04/17 03:50:16;;;;;;;;;8.00;6.25;;;;;10.13;45.59;101593.25;5073954;27;46259;-73
2022/04/17 03:52:44;;;;;;;;;9.00;9.00;;;;;10.07;45.92;101592.50;5074181;27;45399;-72
2022/04/17 03:55:11;;;;;;;;;7.25;6.75;;;;;10.00;46.42;101590.91;5077222;27;45365;-70
2022/04/17 03:57:37;;;;;;;;;7.50;7.00;;;;;9.97;46.61;101590.97;5077734;27;45605;-72
2022/04/17 04:00:05;;;;;;;;;10.25;9.25;;;;;9.91;47.09;101591.09;5077089;27;46899;-71
2022/04/17 04:02:31;;;;;;;;;8.25;8.25;;;;;9.85;47.15;101580.72;5077040;27;45499;-71
2022/04/17 04:04:57;;;;;;;;;6.00;5.00;;;;;9.84;46.84;101584.25;5077520;28;45373;-71
2022/04/17 04:07:23;;;;;;;;;8.00;8.00;;;;;9.75;46.73;101577.41;5077928;27;45226;-71
2022/04/17 04:09:49;;;;;;;;;8.75;8.75;;;;;9.75;47.11;101582.66;5077408;27;45538;-72
2022/04/17 04:12:14;;;;;;;;;7.00;6.00;;;;;9.72;47.47;101580.09;5077088;27;45478;-74
2022/04/17 04:14:40;;;;;;;;;7.75;7.75;;;;;9.67;47.64;101572.34;5077700;27;45194;-71
2022/04/17 04:17:05;;;;;;;;;9.00;6.50;;;;;9.62;47.64;101577.66;5077624;27;45454;-67
2022/04/17 04:19:30;;;;;;;;;11.25;10.00;;;;;9.61;47.91;101575.09;5077448;27;45352;-70
2022/04/17 04:21:56;;;;;;;;;12.75;8.50;;;;;9.56;47.93;101571.69;5075884;27;45459;-70
2022/04/17 04:24:26;;;;;;;;;6.50;6.50;;;;;9.54;47.70;101574.31;5077941;27;45279;-70
2022/04/17 04:29:37;;;;;;;;;5.75;4.75;;;;;9.47;47.42;101573.56;5077129;28;45759;-72
2022/04/17 04:32:03;;;;;;;;;9.50;9.00;;;;;9.44;47.47;101560.50;5076922;27;45200;-71
2022/04/17 04:34:29;;;;;;;;;10.00;7.00;;;;;9.40;47.91;101566.72;5077093;27;45266;-68
2022/04/17 04:36:55;;;;;;;;;7.00;7.00;;;;;9.38;48.01;101565.88;5077428;27;45165;-73
2022/04/17 04:39:20;;;;;;;;;5.25;5.25;;;;;9.36;48.30;101572.91;5076835;27;45381;-71
2022/04/17 04:41:46;;;;;;;;;8.75;8.00;;;;;9.34;48.29;101566.81;5077055;27;45213;-71
2022/04/17 04:44:11;;;;;;;;;10.75;8.50;;;;;9.32;48.38;101573.88;5092588;27;45406;-72
2022/04/17 04:46:37;;;;;;;;;7.75;7.00;;;;;9.29;48.17;101571.31;5077153;27;45444;-69
2022/04/17 04:51:47;;;;;;;;;7.75;7.75;;;;;9.21;48.49;101572.31;5076734;28;45326;-71
2022/04/17 04:54:12;;;;;;;;;8.50;7.00;;;;;9.16;48.38;101573.31;5075557;27;45498;-71
2022/04/17 04:56:37;;;;;;;;;8.25;6.75;;;;;9.13;48.19;101571.59;5075519;28;45310;-71
2022/04/17 04:59:04;;;;;;;;;7.75;7.75;;;;;9.16;48.22;101575.94;5076710;27;46283;-72
2022/04/17 05:01:29;;;;;;;;;7.00;7.00;;;;;9.16;48.17;101575.94;5076519;27;45457;-71
2022/04/17 05:03:55;;;;;;;;;5.50;5.50;;;;;9.11;48.48;101576.00;5092438;27;45370;-72
2022/04/17 05:06:20;;;;;;;;;9.00;8.00;;;;;9.09;48.58;101577.78;5076445;27;45593;-73
2022/04/17 05:08:45;;;;;;;;;8.00;7.50;;;;;9.06;48.65;101575.22;5076090;27;47170;-72
2022/04/17 05:11:11;;;;;;;;;7.00;7.00;;;;;9.04;48.26;101582.25;5076270;27;45388;-72
2022/04/17 05:13:38;;;;;;;;;5.50;5.50;;;;;9.04;48.47;101584.88;5076430;27;45408;-71
2022/04/17 05:16:04;;;;;;;;;8.75;5.75;;;;;9.04;48.46;101585.75;5076490;27;45576;-70
2022/04/17 05:18:29;;;;;;;;;7.00;7.00;;;;;8.97;48.31;101580.63;5075935;28;45307;-71
2022/04/17 05:20:55;;;;;;;;;9.50;7.25;;;;;8.97;48.28;101580.63;5076434;27;45346;-69
2022/04/17 05:23:25;;;;;;;;;6.25;6.25;;;;;8.95;47.96;101585.03;5076356;27;45263;-71
2022/04/17 05:25:56;;;;;;;;;8.00;8.00;;;;;8.98;48.70;101598.97;5076448;27;45333;-74
2022/04/17 05:28:21;;;;;;;;;8.25;7.25;;;;;8.98;48.83;101593.72;5075952;27;45309;-71
2022/04/17 05:30:47;;;;;;;;;10.00;9.50;;;;;9.00;49.49;101596.31;5076053;27;45337;-71
2022/04/17 05:33:13;;;;;;;;;7.00;7.00;;;;;9.00;49.08;101599.78;5076222;27;45421;-69
2022/04/17 05:35:39;;;;;;;;;8.75;8.00;;;;;9.00;49.31;101597.16;5076517;27;45535;-71
2022/04/17 05:38:05;;;;;;;;;7.25;7.25;;;;;9.00;49.22;101597.16;5075929;27;45449;-69
2022/04/17 05:40:36;;;;;;;;;7.00;7.00;;;;;9.02;49.86;101598.03;5075841;27;45334;-70
2022/04/17 05:43:02;;;;;;;;;8.50;8.50;;;;;9.02;49.75;101600.66;5076252;27;45259;-69
2022/04/17 05:45:28;;;;;;;;;9.00;9.00;;;;;9.04;49.45;101595.38;5076337;27;45552;-69
2022/04/17 05:47:56;;;;;;;;;12.75;8.25;;;;;9.07;49.76;101592.69;5075956;27;46139;-68
2022/04/17 05:50:21;;;;;;;;;10.50;9.50;;;;;9.09;49.58;101598.78;5075171;27;45366;-70
2022/04/17 05:52:47;;;;;;;;;5.25;5.25;;;;;9.09;48.48;101593.53;5076358;28;45359;-72
2022/04/17 05:55:12;;;;;;;;;11.00;8.75;;;;;9.06;49.14;101588.34;5076796;27;45352;-70
2022/04/17 05:57:37;;;;;;;;;9.00;9.00;;;;;9.15;48.80;101597.81;5075882;27;46485;-73
2022/04/17 06:00:08;;;;;;;;;8.00;8.00;;;;;9.16;48.29;101589.06;5076238;27;45296;-71
2022/04/17 06:02:35;;;;;;;;;10.75;9.00;;;;;9.19;48.70;101589.84;5075048;28;45352;-70
2022/04/17 06:05:04;;;;;;;;;11.75;8.50;;;;;9.21;48.22;101589.84;5076008;27;45385;-71
2022/04/17 06:07:30;;;;;;;;;10.00;8.25;;;;;9.28;47.86;101593.19;5076261;27;46596;-72
2022/04/17 06:10:00;;;;;;;;;10.75;10.50;;;;;9.33;47.17;101594.84;5091750;27;45858;-69
2022/04/17 06:12:25;;;;;;;;;7.75;7.25;;;;;9.35;47.10;101594.81;5076352;27;45374;-68
2022/04/17 06:14:50;;;;;;;;;9.50;9.50;;;;;9.38;46.78;101592.13;5076292;27;46099;-69
2022/04/17 06:17:16;;;;;;;;;8.50;8.50;;;;;9.49;46.67;101600.66;5074863;27;46023;-68
2022/04/17 06:19:42;;;;;;;;;9.25;7.00;;;;;9.58;46.51;101598.78;5080407;27;45415;-74
2022/04/17 06:22:10;;;;;;;;;9.00;9.00;;;;;9.66;46.00;101604.75;5078219;27;45355;-82
2022/04/17 06:24:36;;;;;;;;;8.25;8.00;;;;;9.74;45.63;101600.22;5077990;27;45616;-74
2022/04/17 06:27:01;;;;;;;;;8.75;8.75;;;;;9.76;45.52;101590.53;5077342;27;46096;-73
2022/04/17 06:29:26;;;;;;;;;11.00;8.00;;;;;9.83;44.98;101588.63;5077543;27;45243;-70
2022/04/17 06:31:52;;;;;;;;;13.75;13.75;;;;;9.84;45.08;101584.25;5075589;27;50534;-70
2022/04/17 06:34:17;;;;;;;;;10.50;10.50;;;;;9.89;45.35;101585.00;5076036;27;45209;-73
2022/04/17 06:36:42;;;;;;;;;12.75;9.25;;;;;9.96;45.18;101588.34;5075374;27;46232;-71
2022/04/17 06:39:08;;;;;;;;;8.50;8.50;;;;;9.96;45.09;101591.88;5075543;27;45390;-73
2022/04/17 06:41:33;;;;;;;;;11.50;8.50;;;;;10.04;45.23;101592.56;5075420;27;45357;-67
2022/04/17 06:43:58;;;;;;;;;10.25;9.25;;;;;10.03;44.82;101580.31;5075956;27;45552;-67
2022/04/17 06:46:24;;;;;;;;;9.75;7.25;;;;;10.09;45.22;101595.13;5075321;27;46332;-69
2022/04/17 06:48:49;;;;;;;;;10.75;10.00;;;;;10.12;45.33;101584.53;5075458;27;45373;-70
2022/04/17 06:51:15;;;;;;;;;9.50;8.00;;;;;10.12;44.29;101581.91;5075565;27;45443;-72
2022/04/17 06:53:40;;;;;;;;;10.00;10.00;;;;;10.11;44.58;101587.19;5075385;27;45337;-66
2022/04/17 06:56:12;;;;;;;;;10.00;10.00;;;;;10.15;45.02;101588.84;5071689;27;46501;-72
2022/04/17 06:58:38;;;;;;;;;13.00;11.50;;;;;10.23;44.96;101589.53;5074493;27;45363;-72
2022/04/17 07:01:03;;;;;;;;;9.75;9.75;;;;;10.26;44.64;101588.59;5074565;27;45334;-70
2022/04/17 07:03:28;;;;;;;;;10.00;8.75;;;;;10.28;44.86;101574.50;5074991;27;45685;-73
2022/04/17 07:05:54;;;;;;;;;15.00;10.50;;;;;10.33;44.91;101570.00;5074226;27;46560;-72
2022/04/17 07:08:19;;;;;;;;;10.50;8.00;;;;;10.42;44.92;101568.09;5074437;27;45422;-72
2022/04/17 07:10:45;;;;;;;;;10.25;9.25;;;;;10.49;44.51;101564.41;5075419;27;45341;-71
2022/04/17 07:13:18;;;;;;;;;10.50;10.50;;;;;10.53;44.78;101560.81;5075490;28;45414;-70
2022/04/17 07:15:44;;;;;;;;;9.25;8.00;;;;;10.68;43.91;101559.56;5075015;27;46539;-72
2022/04/17 07:18:09;;;;;;;;;9.75;8.75;;;;;10.77;44.70;101563.75;5073840;28;45275;-74
2022/04/17 07:20:35;;;;;;;;;7.25;7.25;;;;;10.77;43.46;101537.44;5073945;28;45354;-72
2022/04/17 07:23:01;;;;;;;;;9.25;7.00;;;;;10.96;42.76;101554.47;5076131;27;45565;-72
2022/04/17 07:25:27;;;;;;;;;8.25;8.25;;;;;11.05;42.87;101555.13;5075105;28;45960;-72
2022/04/17 07:27:53;;;;;;;;;8.50;8.50;;;;;11.13;42.92;101550.53;5076301;28;45338;-73
2022/04/17 07:30:21;;;;;;;;;8.50;8.50;;;;;11.25;42.75;101544.06;5079332;27;45816;-73
2022/04/17 07:32:49;;;;;;;;;9.25;7.25;;;;;11.33;42.57;101544.72;5078296;27;45501;-72
2022/04/17 07:35:17;;;;;;;;;2.00;2.00;;;;;11.47;41.88;101549.59;5078559;27;46311;-71
2022/04/17 07:37:47;;;;;;;;;9.25;8.00;;;;;11.58;41.74;101549.28;5078626;27;45313;-72
2022/04/17 07:40:15;;;;;;;;;10.50;6.50;;;;;11.66;42.35;101535.88;5078562;27;45450;-71
2022/04/17 07:42:42;;;;;;;;;7.75;7.75;;;;;11.82;41.26;101550.34;5078766;27;45409;-72
2022/04/17 07:45:08;;;;;;;;;6.50;5.00;;;;;11.95;41.47;101547.34;5078081;27;46641;-69
2022/04/17 07:47:34;;;;;;;;;10.00;7.00;;;;;12.02;40.95;101526.94;5077057;28;45342;-70
2022/04/17 07:49:59;;;;;;;;;8.50;6.75;;;;;12.14;40.82;101531.84;5077484;28;45446;-71
2022/04/17 07:52:24;;;;;;;;;9.00;8.00;;;;;12.21;40.99;101524.59;5078502;27;46155;-69
2022/04/17 07:54:50;;;;;;;;;10.75;7.75;;;;;12.35;40.63;101532.09;5078401;27;46525;-70
2022/04/17 07:57:15;;;;;;;;;7.50;6.00;;;;;12.48;40.60;101532.53;5078026;27;45362;-70
2022/04/17 07:59:41;;;;;;;;;8.00;8.00;;;;;12.56;40.32;101522.56;5078196;28;45326;-70
2022/04/17 08:02:28;;;;;;;;;6.25;6.25;;;;;12.73;40.16;101523.81;5076756;28;45543;-70
2022/04/17 08:04:54;;;;;;;;;6.25;6.25;;;;;12.81;39.46;101513.84;5077243;27;45572;-73
2022/04/17 08:07:20;;;;;;;;;7.50;7.50;;;;;12.79;38.84;101518.31;5077768;28;45507;-72
2022/04/17 08:09:46;;;;;;;;;7.75;7.75;;;;;12.82;39.00;101516.41;5077763;27;45391;-73
2022/04/17 08:12:11;;;;;;;;;5.50;5.50;;;;;12.86;39.15;101522.47;5077489;27;45401;-75
2022/04/17 08:14:37;;;;;;;;;8.50;8.50;;;;;12.95;38.34;101524.78;5077173;27;45301;-70
2022/04/17 08:17:02;;;;;;;;;7.00;7.00;;;;;13.03;38.83;101519.22;5077798;27;45399;-72
2022/04/17 08:19:29;;;;;;;;;7.50;7.50;;;;;13.15;39.04;101516.13;5075752;27;45366;-73
2022/04/17 08:21:55;;;;;;;;;11.25;9.25;;;;;13.30;38.94;101512.09;5076991;27;45192;-70
2022/04/17 08:24:21;;;;;;;;;6.50;6.50;;;;;13.37;38.57;101503.94;5076991;27;46532;-71
2022/04/17 08:26:47;;;;;;;;;4.25;4.25;;;;;13.41;37.70;101514.34;5077236;27;45384;-71
2022/04/17 08:29:12;;;;;;;;;6.00;6.00;;;;;13.40;37.84;101507.34;5076800;27;45524;-71
2022/04/17 08:31:38;;;;;;;;;7.75;7.75;;;;;13.47;38.02;101500.06;5077016;27;45426;-70
2022/04/17 08:34:03;;;;;;;;;5.00;5.00;;;;;13.58;37.98;101492.56;5077120;27;45422;-70
2022/04/17 08:36:29;;;;;;;;;6.75;6.75;;;;;13.66;37.57;101497.59;5075115;28;45434;-68
2022/04/17 08:38:54;;;;;;;;;5.25;4.25;;;;;13.75;37.15;101499.00;5076438;27;45428;-71
2022/04/17 08:41:20;;;;;;;;;5.25;5.25;;;;;13.85;37.33;101500.38;5076405;27;45306;-70
2022/04/17 08:43:46;;;;;;;;;6.50;6.50;;;;;13.84;36.35;101490.72;5076669;27;46460;-73
2022/04/17 08:46:12;;;;;;;;;4.50;4.25;;;;;13.98;37.13;101500.75;5076500;27;45467;-70
2022/04/17 08:48:38;;;;;;;;;7.25;5.25;;;;;14.08;36.64;101497.72;5077002;27;45425;-71
2022/04/17 08:51:05;;;;;;;;;6.00;5.00;;;;;14.20;36.34;101491.94;5077049;28;45326;-70
2022/04/17 08:53:34;;;;;;;;;8.25;7.25;;;;;14.35;36.55;101490.44;5076416;28;45364;-71
2022/04/17 08:55:59;;;;;;;;;6.50;6.50;;;;;14.51;36.39;101495.09;5076663;28;45287;-72
2022/04/17 08:58:25;;;;;;;;;9.25;9.00;;;;;14.59;35.96;101498.28;5076245;27;45324;-72
2022/04/17 09:00:51;;;;;;;;;5.25;5.25;;;;;14.66;35.52;101496.25;5076993;27;45465;-73
2022/04/17 09:03:16;;;;;;;;;7.00;5.50;;;;;14.75;34.97;101494.06;5075855;27;45297;-71
2022/04/17 09:05:41;;;;;;;;;5.00;4.00;;;;;14.80;35.03;101487.72;5074387;28;45501;-72
2022/04/17 09:08:18;;;;;;;;;7.00;7.00;;;;;14.95;35.58;101489.72;5076278;27;45421;-72
2022/04/17 09:10:58;;;;;;;;;5.00;5.00;;;;;15.12;34.62;101486.31;5076213;27;45192;-69
2022/04/17 09:13:28;;;;;;;;;21.00;17.75;;;;;15.22;34.41;101486.75;5075535;27;46651;-70
2022/04/17 09:15:54;;;;;;;;;19.50;18.00;;;;;15.26;34.08;101484.81;5075612;27;45288;-69
2022/04/17 09:18:19;;;;;;;;;22.75;19.00;;;;;15.29;33.89;101477.59;5074425;28;45370;-73
2022/04/17 09:20:48;;;;;;;;;12.25;10.25;;;;;15.30;33.59;101474.03;5076225;27;45263;-71
2022/04/17 09:23:14;;;;;;;;;8.75;8.75;;;;;15.34;33.51;101475.59;5074729;28;47978;-70
2022/04/17 09:25:39;;;;;;;;;10.75;7.00;;;;;15.38;33.57;101476.34;5076243;27;45277;-69
2022/04/17 09:28:06;;;;;;;;;4.75;4.75;;;;;15.46;33.70;101473.31;5075080;28;45335;-70
2022/04/17 09:30:34;;;;;;;;;5.00;5.00;;;;;15.56;32.87;101466.63;5076534;28;45405;-69
2022/04/17 09:33:17;;;;;;;;;6.50;6.50;;;;;15.69;33.63;101466.06;5075682;27;46470;-70
2022/04/17 09:35:55;;;;;;;;;4.50;4.50;;;;;15.82;33.59;101464.53;5075850;28;45187;-71
2022/04/17 09:38:26;;;;;;;;;8.50;6.75;;;;;15.95;32.31;101462.19;5075832;27;45482;-70
2022/04/17 09:40:51;;;;;;;;;4.00;4.00;;;;;15.87;32.71;101438.66;5075805;27;45428;-70
2022/04/17 09:43:18;;;;;;;;;4.50;4.50;;;;;16.03;32.71;101460.00;5075624;27;46196;-70
2022/04/17 09:46:16;;;;;;;;;5.00;5.00;;;;;16.21;32.68;101449.41;5075729;27;45351;-73
2022/04/17 09:48:43;;;;;;;;;9.00;4.50;;;;;16.31;31.97;101448.00;5075607;27;45346;-71
2022/04/17 09:51:30;;;;;;;;;5.00;5.00;;;;;16.40;31.99;101443.16;5075079;27;45329;-69
2022/04/17 09:54:05;;;;;;;;;8.25;5.25;;;;;16.52;31.90;101442.56;5075156;27;46458;-70
2022/04/17 09:56:35;;;;;;;;;9.25;6.00;;;;;16.67;31.65;101430.28;5075152;27;45298;-69
2022/04/17 09:59:24;;;;;;;;;10.00;5.75;;;;;16.81;31.78;101437.53;5075394;27;45436;-70
2022/04/17 10:01:57;;;;;;;;;7.50;5.00;;;;;16.96;31.12;101429.66;5075082;27;45357;-70
2022/04/17 10:04:24;;;;;;;;;5.50;5.25;;;;;17.02;30.82;101432.03;5074626;27;45433;-70
2022/04/17 10:06:51;;;;;;;;;8.25;7.25;;;;;17.11;30.99;101428.88;5072909;28;45978;-69
2022/04/17 10:09:18;;;;;;;;;5.25;5.25;;;;;17.24;30.73;101423.75;5073084;28;45431;-71
2022/04/17 10:11:43;;;;;;;;;5.00;4.00;;;;;17.39;30.79;101416.72;5074753;27;45541;-72
2022/04/17 10:14:09;;;;;;;;;6.25;5.00;;;;;17.51;30.63;101407.19;5073269;28;46251;-71
2022/04/17 10:16:38;;;;;;;;;9.25;7.25;;;;;17.62;29.93;101406.59;5074365;27;45270;-69
2022/04/17 10:19:15;;;;;;;;;5.25;5.25;;;;;17.67;29.69;101408.03;5075016;27;45340;-71
2022/04/17 10:21:41;;;;;;;;;6.25;5.50;;;;;17.71;29.07;101411.41;5075560;27;45342;-71
2022/04/17 10:24:11;;;;;;;;;11.25;9.50;;;;;17.71;29.34;101406.09;5074791;27;46676;-71
2022/04/17 10:26:55;;;;;;;;;5.00;5.00;;;;;17.74;29.20;101394.38;5075230;27;45254;-72
2022/04/17 10:29:30;;;;;;;;;6.25;6.25;;;;;17.89;29.31;101396.16;5075231;27;45365;-71
2022/04/17 10:32:04;;;;;;;;;5.75;5.75;;;;;17.99;28.60;101398.28;5074675;27;45431;-73
2022/04/17 10:34:48;;;;;;;;;4.00;4.00;;;;;18.02;28.36;101401.66;5073983;27;45704;-72
2022/04/17 10:37:19;;;;;;;;;4.50;4.50;;;;;18.09;27.55;101392.38;5074380;27;45309;-71
2022/04/17 10:39:50;;;;;;;;;4.00;4.00;;;;;18.07;27.86;101380.94;5074541;28;45431;-72
2022/04/17 10:42:16;;;;;;;;;7.50;6.25;;;;;18.15;28.47;101374.31;5072669;27;45472;-74
2022/04/17 10:44:41;;;;;;;;;9.00;7.75;;;;;18.34;28.25;101382.06;5074115;27;45338;-73
2022/04/17 10:47:19;;;;;;;;;3.25;3.00;;;;;18.43;27.41;101367.31;5073845;27;45404;-71
2022/04/17 10:50:00;;;;;;;;;5.75;4.50;;;;;18.48;25.66;101362.56;5074110;27;45330;-71
2022/04/17 10:52:33;;;;;;;;;7.00;7.00;;;;;18.46;25.90;101357.34;5074453;28;45165;-71
2022/04/17 10:55:09;;;;;;;;;6.00;4.00;;;;;18.51;26.73;101351.72;5073954;27;45589;-73
2022/04/17 10:57:45;;;;;;;;;4.50;4.50;;;;;18.61;26.56;101352.03;5072532;28;45448;-71
2022/04/17 11:00:36;;;;;;;;;5.25;4.00;;;;;18.73;26.75;101353.91;5074640;27;45282;-71
2022/04/17 11:03:09;;;;;;;;;6.00;6.00;;;;;18.82;26.36;101350.66;5074982;27;45294;-70
2022/04/17 11:08:51;;;;;;;;;4.50;4.50;;;;;19.11;26.01;101336.47;5075075;28;45463;-71
2022/04/17 11:11:17;;;;;;;;;7.00;5.25;;;;;19.26;26.51;101337.31;5076852;27;45402;-71
2022/04/17 11:14:06;;;;;;;;;3.75;3.00;;;;;19.41;25.66;101332.75;5077615;27;45252;-71
2022/04/17 11:16:42;;;;;;;;;4.00;2.50;;;;;19.37;24.76;101321.47;5077422;27;46483;-70
2022/04/17 11:19:12;;;;;;;;;4.25;4.25;;;;;19.52;25.52;101316.06;5077446;27;45296;-70
2022/04/17 11:21:43;;;;;;;;;5.25;4.00;;;;;19.60;23.39;101324.41;5077177;27;45302;-70
2022/04/17 11:24:08;;;;;;;;;5.00;4.25;;;;;19.60;24.89;101320.88;5076242;28;45488;-71
2022/04/17 11:26:52;;;;;;;;;4.50;4.00;;;;;19.68;24.11;101324.75;5077425;27;45560;-70
2022/04/17 11:29:32;;;;;;;;;3.25;3.25;;;;;19.80;24.73;101315.06;5077558;27;45387;-69
2022/04/17 11:31:58;;;;;;;;;6.00;3.50;;;;;19.91;24.55;101308.19;5077253;28;45321;-70
2022/04/17 11:34:23;;;;;;;;;3.50;1.75;;;;;20.00;23.88;101300.38;5077456;28;45213;-72
2022/04/17 11:36:49;;;;;;;;;3.50;3.50;;;;;20.09;24.35;101304.25;5077000;28;45308;-71
2022/04/17 11:39:26;;;;;;;;;2.00;2.00;;;;;20.14;24.15;101295.91;5077309;28;45327;-71
2022/04/17 11:41:52;;;;;;;;;5.00;5.00;;;;;20.25;24.24;101293.34;5077518;28;45244;-70
2022/04/17 11:44:17;;;;;;;;;3.25;3.25;;;;;20.36;23.82;101291.75;5077433;27;45488;-70